sensor_id;sensor_type;location;lat;lon;timestamp;P1;durP1;ratioP1;P2;durP2;ratioP2
34585;SDS011;20816;50.950;11.108;2023-06-22T00:01:18;3.10;;;2.17;;
34585;SDS011;20816;50.950;11.108;2023-06-22T00:03:46;4.35;;;2.22;;
34585;SDS011;20816;50.950;11.108;2023-06-22T00:06:13;3.65;;;2.03;;
34585;SDS011;20816;50.950;11.108;2023-06-22T00:08:40;3.63;;;2.15;;
34585;SDS011;20816;50.950;11.108;2023-06-22T00:11:06;3.05;;;1.92;;
34585;SDS011;20816;50.950;11.108;2023-06-22T00:13:33;3.30;;;2.40;;
34585;SDS011;20816;50.950;11.108;2023-06-22T00:16:00;2.53;;;2.15;;
34585;SDS011;20816;50.950;11.108;2023-06-22T00:18:27;6.88;;;2.15;;
34585;SDS011;20816;50.950;11.108;2023-06-22T00:20:55;2.40;;;2.20;;
34585;SDS011;20816;50.950;11.108;2023-06-22T00:23:25;2.80;;;2.00;;
34585;SDS011;20816;50.950;11.108;2023-06-22T00:25:52;3.72;;;2.15;;
34585;SDS011;20816;50.950;11.108;2023-06-22T00:28:19;4.07;;;2.13;;
34585;SDS011;20816;50.950;11.108;2023-06-22T00:30:45;3.72;;;2.00;;
34585;SDS011;20816;50.950;11.108;2023-06-22T00:33:12;4.30;;;2.55;;
34585;SDS011;20816;50.950;11.108;2023-06-22T00:35:39;3.40;;;2.38;;
34585;SDS011;20816;50.950;11.108;2023-06-22T00:38:07;5.10;;;1.90;;
34585;SDS011;20816;50.950;11.108;2023-06-22T00:40:34;6.30;;;2.28;;
34585;SDS011;20816;50.950;11.108;2023-06-22T00:43:03;3.20;;;2.13;;
34585;SDS011;20816;50.950;11.108;2023-06-22T00:45:32;3.53;;;2.25;;
34585;SDS011;20816;50.950;11.108;2023-06-22T00:47:59;2.38;;;2.03;;
34585;SDS011;20816;50.950;11.108;2023-06-22T00:50:27;2.95;;;2.65;;
34585;SDS011;20816;50.950;11.108;2023-06-22T00:53:04;2.78;;;2.20;;
34585;SDS011;20816;50.950;11.108;2023-06-22T00:55:36;5.28;;;2.47;;
34585;SDS011;20816;50.950;11.108;2023-06-22T00:58:08;4.85;;;2.20;;
34585;SDS011;20816;50.950;11.108;2023-06-22T01:00:37;3.08;;;2.35;;
34585;SDS011;20816;50.950;11.108;2023-06-22T01:03:05;3.97;;;2.72;;
34585;SDS011;20816;50.950;11.108;2023-06-22T01:05:36;3.45;;;1.90;;
34585;SDS011;20816;50.950;11.108;2023-06-22T01:11:16;4.65;;;3.25;;
34585;SDS011;20816;50.950;11.108;2023-06-22T01:16:35;4.53;;;2.47;;
34585;SDS011;20816;50.950;11.108;2023-06-22T01:19:15;5.30;;;2.78;;
34585;SDS011;20816;50.950;11.108;2023-06-22T01:22:02;3.15;;;2.17;;
34585;SDS011;20816;50.950;11.108;2023-06-22T01:24:41;4.25;;;3.22;;
34585;SDS011;20816;50.950;11.108;2023-06-22T01:30:13;3.17;;;2.35;;
34585;SDS011;20816;50.950;11.108;2023-06-22T01:32:43;5.60;;;2.30;;
34585;SDS011;20816;50.950;11.108;2023-06-22T01:35:10;4.32;;;2.90;;
34585;SDS011;20816;50.950;11.108;2023-06-22T01:37:39;3.88;;;2.88;;
34585;SDS011;20816;50.950;11.108;2023-06-22T01:40:06;2.90;;;2.28;;
34585;SDS011;20816;50.950;11.108;2023-06-22T01:42:35;4.00;;;2.78;;
34585;SDS011;20816;50.950;11.108;2023-06-22T01:45:04;3.95;;;2.47;;
34585;SDS011;20816;50.950;11.108;2023-06-22T01:47:32;4.15;;;2.47;;
34585;SDS011;20816;50.950;11.108;2023-06-22T01:50:00;3.53;;;2.38;;
34585;SDS011;20816;50.950;11.108;2023-06-22T01:52:27;3.40;;;2.67;;
34585;SDS011;20816;50.950;11.108;2023-06-22T01:54:54;3.90;;;3.10;;
34585;SDS011;20816;50.950;11.108;2023-06-22T01:57:20;4.30;;;2.60;;
34585;SDS011;20816;50.950;11.108;2023-06-22T02:00:01;4.78;;;3.17;;
34585;SDS011;20816;50.950;11.108;2023-06-22T02:02:33;3.80;;;2.72;;
34585;SDS011;20816;50.950;11.108;2023-06-22T02:05:09;4.57;;;2.80;;
34585;SDS011;20816;50.950;11.108;2023-06-22T02:07:56;3.20;;;2.83;;
34585;SDS011;20816;50.950;11.108;2023-06-22T02:10:29;4.20;;;2.83;;
34585;SDS011;20816;50.950;11.108;2023-06-22T02:12:57;3.90;;;2.70;;
34585;SDS011;20816;50.950;11.108;2023-06-22T02:15:25;4.22;;;3.10;;
34585;SDS011;20816;50.950;11.108;2023-06-22T02:17:52;4.60;;;2.70;;
34585;SDS011;20816;50.950;11.108;2023-06-22T02:20:19;3.60;;;2.40;;
34585;SDS011;20816;50.950;11.108;2023-06-22T02:22:46;3.63;;;2.50;;
34585;SDS011;20816;50.950;11.108;2023-06-22T02:25:13;4.93;;;3.28;;
34585;SDS011;20816;50.950;11.108;2023-06-22T02:27:40;6.70;;;3.85;;
34585;SDS011;20816;50.950;11.108;2023-06-22T02:30:08;3.30;;;2.47;;
34585;SDS011;20816;50.950;11.108;2023-06-22T02:32:35;3.50;;;2.90;;
34585;SDS011;20816;50.950;11.108;2023-06-22T02:35:02;3.50;;;2.75;;
34585;SDS011;20816;50.950;11.108;2023-06-22T02:37:32;3.53;;;2.67;;
34585;SDS011;20816;50.950;11.108;2023-06-22T02:39:59;4.22;;;2.55;;
34585;SDS011;20816;50.950;11.108;2023-06-22T02:42:26;3.17;;;2.47;;
34585;SDS011;20816;50.950;11.108;2023-06-22T02:44:53;5.95;;;2.38;;
34585;SDS011;20816;50.950;11.108;2023-06-22T02:47:19;6.45;;;3.38;;
34585;SDS011;20816;50.950;11.108;2023-06-22T02:49:46;3.00;;;2.65;;
34585;SDS011;20816;50.950;11.108;2023-06-22T02:52:13;3.80;;;2.47;;
34585;SDS011;20816;50.950;11.108;2023-06-22T02:54:40;4.18;;;2.85;;
34585;SDS011;20816;50.950;11.108;2023-06-22T02:57:06;4.32;;;2.88;;
34585;SDS011;20816;50.950;11.108;2023-06-22T02:59:40;5.97;;;2.78;;
34585;SDS011;20816;50.950;11.108;2023-06-22T03:02:08;6.32;;;2.80;;
34585;SDS011;20816;50.950;11.108;2023-06-22T03:04:35;4.32;;;2.92;;
34585;SDS011;20816;50.950;11.108;2023-06-22T03:07:02;4.78;;;2.75;;
34585;SDS011;20816;50.950;11.108;2023-06-22T03:09:29;4.70;;;3.55;;
34585;SDS011;20816;50.950;11.108;2023-06-22T03:11:56;5.20;;;2.90;;
34585;SDS011;20816;50.950;11.108;2023-06-22T03:14:23;4.22;;;2.72;;
34585;SDS011;20816;50.950;11.108;2023-06-22T03:16:50;3.95;;;2.70;;
34585;SDS011;20816;50.950;11.108;2023-06-22T03:19:17;4.47;;;3.05;;
34585;SDS011;20816;50.950;11.108;2023-06-22T03:21:43;5.00;;;3.50;;
34585;SDS011;20816;50.950;11.108;2023-06-22T03:24:10;3.85;;;3.03;;
34585;SDS011;20816;50.950;11.108;2023-06-22T03:26:37;5.32;;;3.20;;
34585;SDS011;20816;50.950;11.108;2023-06-22T03:29:04;4.03;;;3.00;;
34585;SDS011;20816;50.950;11.108;2023-06-22T03:31:31;5.43;;;3.28;;
34585;SDS011;20816;50.950;11.108;2023-06-22T03:33:58;4.13;;;2.55;;
34585;SDS011;20816;50.950;11.108;2023-06-22T03:36:24;3.65;;;2.92;;
34585;SDS011;20816;50.950;11.108;2023-06-22T03:38:51;4.38;;;3.13;;
34585;SDS011;20816;50.950;11.108;2023-06-22T03:41:18;4.20;;;3.00;;
34585;SDS011;20816;50.950;11.108;2023-06-22T03:43:45;4.30;;;3.20;;
34585;SDS011;20816;50.950;11.108;2023-06-22T03:46:11;3.85;;;2.60;;
34585;SDS011;20816;50.950;11.108;2023-06-22T03:48:38;3.88;;;2.95;;
34585;SDS011;20816;50.950;11.108;2023-06-22T03:51:05;6.97;;;3.25;;
34585;SDS011;20816;50.950;11.108;2023-06-22T03:53:32;5.47;;;3.67;;
34585;SDS011;20816;50.950;11.108;2023-06-22T03:55:59;4.10;;;3.13;;
34585;SDS011;20816;50.950;11.108;2023-06-22T03:58:26;6.82;;;3.20;;
34585;SDS011;20816;50.950;11.108;2023-06-22T04:00:52;3.45;;;3.15;;
34585;SDS011;20816;50.950;11.108;2023-06-22T04:03:19;4.13;;;3.00;;
34585;SDS011;20816;50.950;11.108;2023-06-22T04:05:47;4.93;;;3.40;;
34585;SDS011;20816;50.950;11.108;2023-06-22T04:08:15;5.95;;;3.40;;
34585;SDS011;20816;50.950;11.108;2023-06-22T04:10:42;4.25;;;3.10;;
34585;SDS011;20816;50.950;11.108;2023-06-22T04:13:08;6.60;;;4.47;;
34585;SDS011;20816;50.950;11.108;2023-06-22T04:15:35;4.43;;;3.22;;
34585;SDS011;20816;50.950;11.108;2023-06-22T04:18:02;4.15;;;2.97;;
34585;SDS011;20816;50.950;11.108;2023-06-22T04:20:30;10.70;;;3.95;;
34585;SDS011;20816;50.950;11.108;2023-06-22T04:22:58;5.20;;;3.05;;
34585;SDS011;20816;50.950;11.108;2023-06-22T04:25:25;5.35;;;3.72;;
34585;SDS011;20816;50.950;11.108;2023-06-22T04:27:51;4.78;;;3.58;;
34585;SDS011;20816;50.950;11.108;2023-06-22T04:30:18;5.10;;;3.33;;
34585;SDS011;20816;50.950;11.108;2023-06-22T04:32:45;7.55;;;4.00;;
34585;SDS011;20816;50.950;11.108;2023-06-22T04:35:24;5.95;;;4.13;;
34585;SDS011;20816;50.950;11.108;2023-06-22T04:37:52;4.07;;;3.28;;
34585;SDS011;20816;50.950;11.108;2023-06-22T04:40:24;5.50;;;3.50;;
34585;SDS011;20816;50.950;11.108;2023-06-22T04:42:52;6.72;;;3.58;;
34585;SDS011;20816;50.950;11.108;2023-06-22T04:45:20;8.25;;;3.42;;
34585;SDS011;20816;50.950;11.108;2023-06-22T04:47:47;5.70;;;3.55;;
34585;SDS011;20816;50.950;11.108;2023-06-22T04:50:14;5.20;;;3.40;;
34585;SDS011;20816;50.950;11.108;2023-06-22T04:52:41;5.82;;;3.10;;
34585;SDS011;20816;50.950;11.108;2023-06-22T04:55:08;6.90;;;4.13;;
34585;SDS011;20816;50.950;11.108;2023-06-22T04:57:35;4.65;;;3.70;;
34585;SDS011;20816;50.950;11.108;2023-06-22T05:00:02;8.45;;;3.65;;
34585;SDS011;20816;50.950;11.108;2023-06-22T05:02:38;4.00;;;3.05;;
34585;SDS011;20816;50.950;11.108;2023-06-22T05:05:06;6.63;;;3.13;;
34585;SDS011;20816;50.950;11.108;2023-06-22T05:07:34;4.00;;;2.70;;
34585;SDS011;20816;50.950;11.108;2023-06-22T05:10:04;6.32;;;3.78;;
34585;SDS011;20816;50.950;11.108;2023-06-22T05:12:31;4.20;;;2.83;;
34585;SDS011;20816;50.950;11.108;2023-06-22T05:14:58;4.78;;;3.40;;
34585;SDS011;20816;50.950;11.108;2023-06-22T05:17:24;6.13;;;3.28;;
34585;SDS011;20816;50.950;11.108;2023-06-22T05:19:51;4.93;;;3.50;;
34585;SDS011;20816;50.950;11.108;2023-06-22T05:22:18;4.22;;;2.95;;
34585;SDS011;20816;50.950;11.108;2023-06-22T05:24:45;4.85;;;3.05;;
34585;SDS011;20816;50.950;11.108;2023-06-22T05:27:12;3.63;;;2.60;;
34585;SDS011;20816;50.950;11.108;2023-06-22T05:29:40;5.32;;;2.90;;
34585;SDS011;20816;50.950;11.108;2023-06-22T05:32:07;6.15;;;3.20;;
34585;SDS011;20816;50.950;11.108;2023-06-22T05:34:34;3.33;;;2.63;;
34585;SDS011;20816;50.950;11.108;2023-06-22T05:37:01;6.85;;;2.53;;
34585;SDS011;20816;50.950;11.108;2023-06-22T05:39:28;4.90;;;3.00;;
34585;SDS011;20816;50.950;11.108;2023-06-22T05:41:55;6.38;;;3.17;;
34585;SDS011;20816;50.950;11.108;2023-06-22T05:44:22;4.55;;;3.08;;
34585;SDS011;20816;50.950;11.108;2023-06-22T05:46:49;5.18;;;3.50;;
34585;SDS011;20816;50.950;11.108;2023-06-22T05:49:16;6.25;;;3.20;;
34585;SDS011;20816;50.950;11.108;2023-06-22T05:51:43;6.75;;;3.10;;
34585;SDS011;20816;50.950;11.108;2023-06-22T05:54:09;4.15;;;3.08;;
34585;SDS011;20816;50.950;11.108;2023-06-22T05:56:36;4.65;;;3.25;;
34585;SDS011;20816;50.950;11.108;2023-06-22T05:59:04;6.18;;;2.90;;
34585;SDS011;20816;50.950;11.108;2023-06-22T06:01:30;4.85;;;3.00;;
34585;SDS011;20816;50.950;11.108;2023-06-22T06:04:02;5.38;;;2.92;;
34585;SDS011;20816;50.950;11.108;2023-06-22T06:06:34;7.68;;;4.68;;
34585;SDS011;20816;50.950;11.108;2023-06-22T06:09:04;6.07;;;2.90;;
34585;SDS011;20816;50.950;11.108;2023-06-22T06:11:31;3.72;;;2.80;;
34585;SDS011;20816;50.950;11.108;2023-06-22T06:13:57;5.05;;;3.13;;
34585;SDS011;20816;50.950;11.108;2023-06-22T06:16:24;7.45;;;3.22;;
34585;SDS011;20816;50.950;11.108;2023-06-22T06:18:51;4.15;;;3.15;;
34585;SDS011;20816;50.950;11.108;2023-06-22T06:21:19;3.83;;;2.75;;
34585;SDS011;20816;50.950;11.108;2023-06-22T06:23:46;8.77;;;3.30;;
34585;SDS011;20816;50.950;11.108;2023-06-22T06:26:13;5.60;;;3.55;;
34585;SDS011;20816;50.950;11.108;2023-06-22T06:28:43;5.78;;;3.25;;
34585;SDS011;20816;50.950;11.108;2023-06-22T06:31:10;7.22;;;4.10;;
34585;SDS011;20816;50.950;11.108;2023-06-22T06:33:38;6.43;;;3.33;;
34585;SDS011;20816;50.950;11.108;2023-06-22T06:36:05;8.05;;;3.92;;
34585;SDS011;20816;50.950;11.108;2023-06-22T06:38:34;5.63;;;3.28;;
34585;SDS011;20816;50.950;11.108;2023-06-22T06:41:01;8.13;;;3.65;;
34585;SDS011;20816;50.950;11.108;2023-06-22T06:43:28;6.25;;;3.47;;
34585;SDS011;20816;50.950;11.108;2023-06-22T06:45:55;5.28;;;3.63;;
34585;SDS011;20816;50.950;11.108;2023-06-22T06:48:21;9.48;;;3.30;;
34585;SDS011;20816;50.950;11.108;2023-06-22T06:50:48;4.72;;;3.45;;
34585;SDS011;20816;50.950;11.108;2023-06-22T06:53:15;9.02;;;3.88;;
34585;SDS011;20816;50.950;11.108;2023-06-22T06:55:41;6.90;;;3.72;;
34585;SDS011;20816;50.950;11.108;2023-06-22T06:58:08;6.05;;;3.13;;
34585;SDS011;20816;50.950;11.108;2023-06-22T07:00:36;5.43;;;3.42;;
34585;SDS011;20816;50.950;11.108;2023-06-22T07:03:03;6.22;;;4.03;;
34585;SDS011;20816;50.950;11.108;2023-06-22T07:05:30;4.57;;;3.72;;
34585;SDS011;20816;50.950;11.108;2023-06-22T07:07:57;5.63;;;3.80;;
34585;SDS011;20816;50.950;11.108;2023-06-22T07:10:24;6.75;;;4.22;;
34585;SDS011;20816;50.950;11.108;2023-06-22T07:12:50;4.88;;;3.22;;
34585;SDS011;20816;50.950;11.108;2023-06-22T07:15:17;6.15;;;4.32;;
34585;SDS011;20816;50.950;11.108;2023-06-22T07:17:44;4.90;;;3.75;;
34585;SDS011;20816;50.950;11.108;2023-06-22T07:20:11;6.68;;;4.60;;
34585;SDS011;20816;50.950;11.108;2023-06-22T07:22:39;8.13;;;3.92;;
34585;SDS011;20816;50.950;11.108;2023-06-22T07:25:07;4.43;;;3.58;;
34585;SDS011;20816;50.950;11.108;2023-06-22T07:27:45;6.00;;;3.80;;
34585;SDS011;20816;50.950;11.108;2023-06-22T07:30:29;4.70;;;3.72;;
34585;SDS011;20816;50.950;11.108;2023-06-22T07:32:57;6.13;;;4.25;;
34585;SDS011;20816;50.950;11.108;2023-06-22T07:35:24;5.80;;;4.35;;
34585;SDS011;20816;50.950;11.108;2023-06-22T07:37:51;4.85;;;3.83;;
34585;SDS011;20816;50.950;11.108;2023-06-22T07:40:18;4.53;;;3.67;;
34585;SDS011;20816;50.950;11.108;2023-06-22T07:42:45;6.00;;;4.28;;
34585;SDS011;20816;50.950;11.108;2023-06-22T07:45:14;6.97;;;4.15;;
34585;SDS011;20816;50.950;11.108;2023-06-22T07:47:41;6.15;;;4.10;;
34585;SDS011;20816;50.950;11.108;2023-06-22T07:50:08;5.50;;;4.10;;
34585;SDS011;20816;50.950;11.108;2023-06-22T07:52:35;4.78;;;3.25;;
34585;SDS011;20816;50.950;11.108;2023-06-22T07:55:02;6.97;;;3.58;;
34585;SDS011;20816;50.950;11.108;2023-06-22T07:57:30;5.43;;;3.65;;
34585;SDS011;20816;50.950;11.108;2023-06-22T08:00:01;5.93;;;3.65;;
34585;SDS011;20816;50.950;11.108;2023-06-22T08:02:32;5.63;;;3.50;;
34585;SDS011;20816;50.950;11.108;2023-06-22T08:04:59;6.05;;;3.95;;
34585;SDS011;20816;50.950;11.108;2023-06-22T08:07:44;4.70;;;3.75;;
34585;SDS011;20816;50.950;11.108;2023-06-22T08:10:14;4.57;;;3.72;;
34585;SDS011;20816;50.950;11.108;2023-06-22T08:12:41;5.55;;;3.95;;
34585;SDS011;20816;50.950;11.108;2023-06-22T08:15:08;4.78;;;3.17;;
34585;SDS011;20816;50.950;11.108;2023-06-22T08:17:39;4.50;;;3.47;;
34585;SDS011;20816;50.950;11.108;2023-06-22T08:20:06;4.95;;;3.70;;
34585;SDS011;20816;50.950;11.108;2023-06-22T08:22:40;8.07;;;4.03;;
34585;SDS011;20816;50.950;11.108;2023-06-22T08:25:08;5.78;;;3.60;;
34585;SDS011;20816;50.950;11.108;2023-06-22T08:27:36;3.95;;;3.22;;
34585;SDS011;20816;50.950;11.108;2023-06-22T08:30:03;5.38;;;3.63;;
34585;SDS011;20816;50.950;11.108;2023-06-22T08:32:30;6.80;;;3.65;;
34585;SDS011;20816;50.950;11.108;2023-06-22T08:34:59;5.90;;;3.97;;
34585;SDS011;20816;50.950;11.108;2023-06-22T08:37:26;15.63;;;3.60;;
34585;SDS011;20816;50.950;11.108;2023-06-22T08:40:03;4.60;;;3.75;;
34585;SDS011;20816;50.950;11.108;2023-06-22T08:42:37;4.57;;;3.42;;
34585;SDS011;20816;50.950;11.108;2023-06-22T08:45:06;5.05;;;3.83;;
34585;SDS011;20816;50.950;11.108;2023-06-22T08:47:34;5.05;;;3.50;;
34585;SDS011;20816;50.950;11.108;2023-06-22T08:50:01;7.22;;;3.58;;
34585;SDS011;20816;50.950;11.108;2023-06-22T08:52:30;4.68;;;3.50;;
34585;SDS011;20816;50.950;11.108;2023-06-22T08:54:57;7.00;;;4.43;;
34585;SDS011;20816;50.950;11.108;2023-06-22T08:57:27;8.40;;;3.83;;
34585;SDS011;20816;50.950;11.108;2023-06-22T08:59:54;5.25;;;4.32;;
34585;SDS011;20816;50.950;11.108;2023-06-22T09:02:28;5.85;;;3.97;;
34585;SDS011;20816;50.950;11.108;2023-06-22T09:04:58;4.75;;;4.00;;
34585;SDS011;20816;50.950;11.108;2023-06-22T09:07:25;6.18;;;3.67;;
34585;SDS011;20816;50.950;11.108;2023-06-22T09:09:52;6.82;;;3.90;;
34585;SDS011;20816;50.950;11.108;2023-06-22T09:12:20;4.25;;;3.28;;
34585;SDS011;20816;50.950;11.108;2023-06-22T09:14:49;5.30;;;3.85;;
34585;SDS011;20816;50.950;11.108;2023-06-22T09:17:16;11.10;;;4.20;;
34585;SDS011;20816;50.950;11.108;2023-06-22T09:19:42;6.95;;;4.43;;
34585;SDS011;20816;50.950;11.108;2023-06-22T09:22:09;4.80;;;4.03;;
34585;SDS011;20816;50.950;11.108;2023-06-22T09:24:36;6.20;;;4.07;;
34585;SDS011;20816;50.950;11.108;2023-06-22T09:27:03;4.90;;;4.00;;
34585;SDS011;20816;50.950;11.108;2023-06-22T09:29:29;4.18;;;3.78;;
34585;SDS011;20816;50.950;11.108;2023-06-22T09:31:59;4.45;;;4.05;;
34585;SDS011;20816;50.950;11.108;2023-06-22T09:34:27;5.95;;;4.38;;
34585;SDS011;20816;50.950;11.108;2023-06-22T09:36:54;4.88;;;3.42;;
34585;SDS011;20816;50.950;11.108;2023-06-22T09:39:21;5.15;;;4.25;;
34585;SDS011;20816;50.950;11.108;2023-06-22T09:41:48;6.28;;;4.47;;
34585;SDS011;20816;50.950;11.108;2023-06-22T09:44:15;4.97;;;4.25;;
34585;SDS011;20816;50.950;11.108;2023-06-22T09:46:41;5.50;;;3.92;;
34585;SDS011;20816;50.950;11.108;2023-06-22T09:49:08;6.55;;;4.40;;
34585;SDS011;20816;50.950;11.108;2023-06-22T09:51:35;6.78;;;4.53;;
34585;SDS011;20816;50.950;11.108;2023-06-22T09:54:01;4.45;;;4.00;;
34585;SDS011;20816;50.950;11.108;2023-06-22T09:56:28;5.75;;;4.05;;
34585;SDS011;20816;50.950;11.108;2023-06-22T09:58:56;6.00;;;3.78;;
34585;SDS011;20816;50.950;11.108;2023-06-22T10:01:42;4.93;;;4.03;;
34585;SDS011;20816;50.950;11.108;2023-06-22T10:04:09;9.98;;;3.90;;
34585;SDS011;20816;50.950;11.108;2023-06-22T10:06:36;4.57;;;3.47;;
34585;SDS011;20816;50.950;11.108;2023-06-22T10:09:06;6.05;;;3.65;;
34585;SDS011;20816;50.950;11.108;2023-06-22T10:11:34;4.70;;;3.63;;
34585;SDS011;20816;50.950;11.108;2023-06-22T10:14:01;4.70;;;3.80;;
34585;SDS011;20816;50.950;11.108;2023-06-22T10:16:30;8.48;;;4.05;;
34585;SDS011;20816;50.950;11.108;2023-06-22T10:18:57;6.70;;;3.83;;
34585;SDS011;20816;50.950;11.108;2023-06-22T10:21:24;6.05;;;4.10;;
34585;SDS011;20816;50.950;11.108;2023-06-22T10:23:53;5.30;;;3.95;;
34585;SDS011;20816;50.950;11.108;2023-06-22T10:26:20;4.88;;;3.92;;
34585;SDS011;20816;50.950;11.108;2023-06-22T10:28:46;4.22;;;3.15;;
34585;SDS011;20816;50.950;11.108;2023-06-22T10:31:13;4.35;;;3.42;;
34585;SDS011;20816;50.950;11.108;2023-06-22T10:33:40;5.47;;;3.55;;
34585;SDS011;20816;50.950;11.108;2023-06-22T10:36:10;6.28;;;4.38;;
34585;SDS011;20816;50.950;11.108;2023-06-22T10:38:37;5.93;;;4.07;;
34585;SDS011;20816;50.950;11.108;2023-06-22T10:41:04;5.43;;;4.03;;
34585;SDS011;20816;50.950;11.108;2023-06-22T10:43:31;7.88;;;3.65;;
34585;SDS011;20816;50.950;11.108;2023-06-22T10:45:57;4.10;;;3.50;;
34585;SDS011;20816;50.950;11.108;2023-06-22T10:48:24;5.90;;;3.63;;
34585;SDS011;20816;50.950;11.108;2023-06-22T10:50:51;6.53;;;3.80;;
34585;SDS011;20816;50.950;11.108;2023-06-22T10:53:17;5.78;;;3.40;;
34585;SDS011;20816;50.950;11.108;2023-06-22T10:55:44;5.15;;;3.70;;
34585;SDS011;20816;50.950;11.108;2023-06-22T10:58:22;5.25;;;4.22;;
34585;SDS011;20816;50.950;11.108;2023-06-22T11:00:49;4.97;;;3.45;;
34585;SDS011;20816;50.950;11.108;2023-06-22T11:03:15;4.70;;;3.60;;
34585;SDS011;20816;50.950;11.108;2023-06-22T11:05:42;5.53;;;3.25;;
34585;SDS011;20816;50.950;11.108;2023-06-22T11:08:09;3.55;;;3.22;;
34585;SDS011;20816;50.950;11.108;2023-06-22T11:10:36;9.55;;;3.58;;
34585;SDS011;20816;50.950;11.108;2023-06-22T11:13:02;5.10;;;3.28;;
34585;SDS011;20816;50.950;11.108;2023-06-22T11:15:30;5.25;;;3.33;;
34585;SDS011;20816;50.950;11.108;2023-06-22T11:17:57;5.15;;;3.20;;
34585;SDS011;20816;50.950;11.108;2023-06-22T11:20:24;5.18;;;3.42;;
34585;SDS011;20816;50.950;11.108;2023-06-22T11:22:51;6.03;;;3.35;;
34585;SDS011;20816;50.950;11.108;2023-06-22T11:25:17;4.78;;;3.33;;
34585;SDS011;20816;50.950;11.108;2023-06-22T11:27:44;7.65;;;3.25;;
34585;SDS011;20816;50.950;11.108;2023-06-22T11:30:11;5.43;;;3.25;;
34585;SDS011;20816;50.950;11.108;2023-06-22T11:32:38;3.60;;;2.95;;
34585;SDS011;20816;50.950;11.108;2023-06-22T11:35:04;5.22;;;3.67;;
34585;SDS011;20816;50.950;11.108;2023-06-22T11:37:31;4.45;;;3.60;;
34585;SDS011;20816;50.950;11.108;2023-06-22T11:39:58;4.22;;;3.20;;
34585;SDS011;20816;50.950;11.108;2023-06-22T11:42:32;5.90;;;3.75;;
34585;SDS011;20816;50.950;11.108;2023-06-22T11:45:00;6.78;;;3.55;;
34585;SDS011;20816;50.950;11.108;2023-06-22T11:47:28;4.32;;;3.10;;
34585;SDS011;20816;50.950;11.108;2023-06-22T11:49:56;6.07;;;3.67;;
34585;SDS011;20816;50.950;11.108;2023-06-22T11:52:22;3.75;;;3.15;;
34585;SDS011;20816;50.950;11.108;2023-06-22T11:54:49;3.60;;;3.15;;
34585;SDS011;20816;50.950;11.108;2023-06-22T11:57:16;4.68;;;3.78;;
34585;SDS011;20816;50.950;11.108;2023-06-22T11:59:42;5.18;;;3.85;;
34585;SDS011;20816;50.950;11.108;2023-06-22T12:02:09;4.97;;;3.40;;
34585;SDS011;20816;50.950;11.108;2023-06-22T12:04:36;3.47;;;3.17;;
34585;SDS011;20816;50.950;11.108;2023-06-22T12:07:03;4.03;;;3.20;;
34585;SDS011;20816;50.950;11.108;2023-06-22T12:09:30;4.10;;;3.28;;
34585;SDS011;20816;50.950;11.108;2023-06-22T12:11:57;7.35;;;3.70;;
34585;SDS011;20816;50.950;11.108;2023-06-22T12:14:23;4.57;;;3.53;;
34585;SDS011;20816;50.950;11.108;2023-06-22T12:16:50;4.63;;;3.50;;
34585;SDS011;20816;50.950;11.108;2023-06-22T12:19:17;7.93;;;3.25;;
34585;SDS011;20816;50.950;11.108;2023-06-22T12:21:43;4.65;;;3.75;;
34585;SDS011;20816;50.950;11.108;2023-06-22T12:24:12;6.95;;;3.70;;
34585;SDS011;20816;50.950;11.108;2023-06-22T12:26:39;4.22;;;3.38;;
34585;SDS011;20816;50.950;11.108;2023-06-22T12:29:06;5.03;;;3.20;;
34585;SDS011;20816;50.950;11.108;2023-06-22T12:31:32;3.65;;;3.08;;
34585;SDS011;20816;50.950;11.108;2023-06-22T12:33:59;3.95;;;3.45;;
34585;SDS011;20816;50.950;11.108;2023-06-22T12:36:26;6.43;;;3.92;;
34585;SDS011;20816;50.950;11.108;2023-06-22T12:38:53;4.55;;;3.03;;
34585;SDS011;20816;50.950;11.108;2023-06-22T12:41:21;3.60;;;2.97;;
34585;SDS011;20816;50.950;11.108;2023-06-22T12:43:48;3.85;;;3.15;;
34585;SDS011;20816;50.950;11.108;2023-06-22T12:46:15;4.03;;;3.10;;
34585;SDS011;20816;50.950;11.108;2023-06-22T12:48:42;4.05;;;3.50;;
34585;SDS011;20816;50.950;11.108;2023-06-22T12:51:09;5.45;;;3.58;;
34585;SDS011;20816;50.950;11.108;2023-06-22T12:53:36;4.95;;;3.67;;
34585;SDS011;20816;50.950;11.108;2023-06-22T12:56:02;5.35;;;3.22;;
34585;SDS011;20816;50.950;11.108;2023-06-22T12:58:30;6.25;;;3.65;;
34585;SDS011;20816;50.950;11.108;2023-06-22T13:00:57;9.18;;;3.33;;
34585;SDS011;20816;50.950;11.108;2023-06-22T13:03:24;5.35;;;3.78;;
34585;SDS011;20816;50.950;11.108;2023-06-22T13:05:54;7.80;;;3.72;;
34585;SDS011;20816;50.950;11.108;2023-06-22T13:08:21;4.15;;;3.17;;
34585;SDS011;20816;50.950;11.108;2023-06-22T13:11:00;4.68;;;3.35;;
34585;SDS011;20816;50.950;11.108;2023-06-22T13:13:27;5.63;;;4.40;;
34585;SDS011;20816;50.950;11.108;2023-06-22T13:15:54;3.92;;;3.53;;
34585;SDS011;20816;50.950;11.108;2023-06-22T13:18:20;8.60;;;3.40;;
34585;SDS011;20816;50.950;11.108;2023-06-22T13:20:47;5.47;;;3.83;;
34585;SDS011;20816;50.950;11.108;2023-06-22T13:23:14;3.38;;;3.08;;
34585;SDS011;20816;50.950;11.108;2023-06-22T13:25:40;7.15;;;3.47;;
34585;SDS011;20816;50.950;11.108;2023-06-22T13:28:07;4.32;;;3.15;;
34585;SDS011;20816;50.950;11.108;2023-06-22T13:30:49;3.53;;;3.20;;
34585;SDS011;20816;50.950;11.108;2023-06-22T13:33:15;4.60;;;3.40;;
34585;SDS011;20816;50.950;11.108;2023-06-22T13:35:43;4.07;;;3.33;;
34585;SDS011;20816;50.950;11.108;2023-06-22T13:38:10;3.78;;;3.20;;
34585;SDS011;20816;50.950;11.108;2023-06-22T13:40:37;4.05;;;3.65;;
34585;SDS011;20816;50.950;11.108;2023-06-22T13:43:06;4.70;;;3.63;;
34585;SDS011;20816;50.950;11.108;2023-06-22T13:45:33;5.18;;;3.60;;
34585;SDS011;20816;50.950;11.108;2023-06-22T13:48:00;5.57;;;3.55;;
34585;SDS011;20816;50.950;11.108;2023-06-22T13:50:27;5.90;;;3.47;;
34585;SDS011;20816;50.950;11.108;2023-06-22T13:52:56;4.10;;;3.30;;
34585;SDS011;20816;50.950;11.108;2023-06-22T13:55:22;4.75;;;3.88;;
34585;SDS011;20816;50.950;11.108;2023-06-22T13:57:49;8.75;;;3.95;;
34585;SDS011;20816;50.950;11.108;2023-06-22T14:00:18;9.52;;;3.60;;
34585;SDS011;20816;50.950;11.108;2023-06-22T14:02:45;4.85;;;3.25;;
34585;SDS011;20816;50.950;11.108;2023-06-22T14:05:12;7.68;;;3.70;;
34585;SDS011;20816;50.950;11.108;2023-06-22T14:07:39;7.28;;;3.95;;
34585;SDS011;20816;50.950;11.108;2023-06-22T14:10:06;5.18;;;3.85;;
34585;SDS011;20816;50.950;11.108;2023-06-22T14:12:33;4.57;;;4.10;;
34585;SDS011;20816;50.950;11.108;2023-06-22T14:14:59;3.65;;;2.97;;
34585;SDS011;20816;50.950;11.108;2023-06-22T14:17:26;5.18;;;3.88;;
34585;SDS011;20816;50.950;11.108;2023-06-22T14:19:53;5.53;;;3.63;;
34585;SDS011;20816;50.950;11.108;2023-06-22T14:22:20;6.43;;;3.53;;
34585;SDS011;20816;50.950;11.108;2023-06-22T14:24:48;4.07;;;3.38;;
34585;SDS011;20816;50.950;11.108;2023-06-22T14:27:15;8.38;;;3.28;;
34585;SDS011;20816;50.950;11.108;2023-06-22T14:29:42;8.77;;;3.53;;
34585;SDS011;20816;50.950;11.108;2023-06-22T14:32:09;3.88;;;3.10;;
34585;SDS011;20816;50.950;11.108;2023-06-22T14:34:36;4.53;;;3.58;;
34585;SDS011;20816;50.950;11.108;2023-06-22T14:37:09;3.58;;;3.20;;
34585;SDS011;20816;50.950;11.108;2023-06-22T14:39:36;4.85;;;3.60;;
34585;SDS011;20816;50.950;11.108;2023-06-22T14:42:03;5.10;;;3.40;;
34585;SDS011;20816;50.950;11.108;2023-06-22T14:44:30;4.97;;;3.70;;
34585;SDS011;20816;50.950;11.108;2023-06-22T14:46:57;3.72;;;3.38;;